Hornafjordur Airport

Airport
ICAO code: 
BIHN
IATA Code: 
HFN
Summary
ICAO Region: 
NAT
Territory: 
Location: 
, Austurland
Serving: 
Hofn
Elevation: 
24 ft
Coordinates: 
Aerial View: 
64° 17' 44.002" N, 15° 13' 37.999" W
Metar
Observation
BIHN 240800Z 06005KT 9999 FEW045 M04/M11 Q1014
Station
Akurnes
Date/Time
2022-01-24 08:00:00
Wind direction
60°
Wind speed
05 kts
Lowest cloud amount
few clouds
Temperature
-4°C
Dew point
-11°C
Humidity
58%
QNH
1014 hPa
Weather condition
n/a

Runways

Designator Length Width Surface Rops
18/36 1500 45 BIT No/No
Airport map: 
Aerial View: 

SKYbrary Partners:

Safety knowledge contributed by: